createdAt,value
2023-02-11T00:00:21.904Z,5.32
2023-02-11T00:02:48.462Z,5.14
2023-02-11T00:05:15.577Z,5.13
2023-02-11T00:07:42.212Z,5.23
2023-02-11T00:10:09.114Z,5.00
2023-02-11T00:12:36.316Z,5.28
2023-02-11T00:15:03.282Z,4.99
2023-02-11T00:17:29.945Z,4.92
2023-02-11T00:19:56.584Z,4.72
2023-02-11T00:22:23.555Z,5.09
2023-02-11T00:24:50.163Z,4.88
2023-02-11T00:27:16.707Z,4.83
2023-02-11T00:29:43.308Z,4.70
2023-02-11T00:32:10.711Z,4.85
2023-02-11T00:34:38.277Z,4.82
2023-02-11T00:37:05.453Z,5.03
2023-02-11T00:39:32.262Z,4.90
2023-02-11T00:41:59.284Z,4.97
2023-02-11T00:44:25.883Z,4.69
2023-02-11T00:46:52.437Z,4.60
2023-02-11T00:49:19.178Z,4.72
2023-02-11T00:51:45.747Z,4.91
2023-02-11T00:54:12.377Z,4.89
2023-02-11T00:56:38.960Z,4.93
2023-02-11T00:59:05.496Z,4.95
2023-02-11T01:01:32.100Z,4.87
2023-02-11T01:03:58.774Z,5.18
2023-02-11T01:06:25.381Z,5.11
2023-02-11T01:08:52.069Z,4.81
2023-02-11T01:11:20.854Z,5.14
2023-02-11T01:13:49.285Z,4.82
2023-02-11T01:16:17.261Z,4.71
2023-02-11T01:18:44.366Z,4.75
2023-02-11T01:21:11.662Z,4.91
2023-02-11T01:23:38.382Z,4.92
2023-02-11T01:26:05.905Z,5.26
2023-02-11T01:28:33.290Z,4.92
2023-02-11T01:31:01.073Z,5.21
2023-02-11T01:33:27.672Z,4.67
2023-02-11T01:35:54.449Z,4.92
2023-02-11T01:38:26.297Z,4.92
2023-02-11T01:41:03.687Z,5.28
2023-02-11T01:43:41.286Z,5.49
2023-02-11T01:46:26.372Z,5.32
2023-02-11T01:49:09.657Z,4.96
2023-02-11T01:51:49.630Z,5.03
2023-02-11T01:54:42.841Z,5.44
2023-02-11T01:57:24.619Z,5.56
2023-02-11T02:00:11.525Z,5.45
2023-02-11T02:03:08.157Z,5.39
2023-02-11T02:06:22.325Z,5.63
2023-02-11T02:09:01.730Z,5.62
2023-02-11T02:11:28.324Z,5.33
2023-02-11T02:13:55.047Z,5.78
2023-02-11T02:16:29.378Z,5.89
2023-02-11T02:19:24.687Z,5.85
2023-02-11T02:22:33.231Z,6.10
2023-02-11T02:25:22.735Z,5.58
2023-02-11T02:28:18.024Z,5.86
2023-02-11T02:30:59.167Z,5.91
2023-02-11T02:33:41.291Z,5.27
2023-02-11T02:36:21.176Z,5.62
2023-02-11T02:39:05.688Z,5.47
2023-02-11T02:41:35.899Z,5.71
2023-02-11T02:44:02.595Z,6.04
2023-02-11T02:46:32.314Z,6.08
2023-02-11T02:49:00.037Z,6.04
2023-02-11T02:52:01.965Z,5.91
2023-02-11T02:55:07.195Z,5.98
2023-02-11T02:57:45.724Z,5.75
2023-02-11T03:00:29.704Z,6.09
2023-02-11T03:03:34.776Z,6.18
2023-02-11T03:06:25.126Z,5.91
2023-02-11T03:09:00.837Z,6.36
2023-02-11T03:11:29.170Z,6.55
2023-02-11T03:13:58.164Z,6.25
2023-02-11T03:16:28.966Z,5.92
2023-02-11T03:19:19.778Z,6.30
2023-02-11T03:21:47.259Z,6.53
2023-02-11T03:24:25.926Z,7.01
2023-02-11T03:27:01.537Z,6.63
2023-02-11T03:29:39.061Z,6.88
2023-02-11T03:32:25.332Z,7.01
2023-02-11T03:35:14.469Z,7.07
2023-02-11T03:37:51.405Z,6.90
2023-02-11T03:40:29.600Z,7.21
2023-02-11T03:43:08.675Z,7.62
2023-02-11T03:45:38.440Z,7.55
2023-02-11T03:48:25.826Z,7.37
2023-02-11T03:50:56.111Z,8.03
2023-02-11T03:53:23.007Z,8.19
2023-02-11T03:55:53.995Z,8.27
2023-02-11T03:58:20.849Z,8.30
2023-02-11T04:00:47.445Z,8.68
2023-02-11T04:03:14.474Z,9.23
2023-02-11T04:05:41.113Z,9.00
2023-02-11T04:08:08.285Z,8.75
2023-02-11T04:10:35.088Z,9.22
2023-02-11T04:13:01.736Z,9.41
2023-02-11T04:15:28.273Z,9.80
2023-02-11T04:17:54.871Z,9.69
2023-02-11T04:20:21.438Z,9.90
2023-02-11T04:22:48.254Z,10.01
2023-02-11T04:25:14.842Z,10.11
2023-02-11T04:27:41.368Z,10.39
2023-02-11T04:30:08.747Z,10.74
2023-02-11T04:32:35.332Z,10.78
2023-02-11T04:35:02.827Z,10.59
2023-02-11T04:37:29.473Z,11.06
2023-02-11T04:39:55.986Z,11.05
2023-02-11T04:42:22.543Z,11.80
2023-02-11T04:44:49.102Z,12.17
2023-02-11T04:47:15.823Z,11.82
2023-02-11T04:49:42.452Z,13.16
2023-02-11T04:52:09.065Z,13.51
2023-02-11T04:54:35.612Z,12.90
2023-02-11T04:57:02.610Z,13.63
2023-02-11T04:59:29.563Z,13.97
2023-02-11T05:01:56.155Z,14.07
2023-02-11T05:04:23.901Z,14.29
2023-02-11T05:06:50.600Z,14.74
2023-02-11T05:09:17.758Z,14.74
2023-02-11T05:11:44.490Z,14.73
2023-02-11T05:14:11.041Z,14.82
2023-02-11T05:16:37.661Z,15.14
2023-02-11T05:19:04.633Z,15.43
2023-02-11T05:21:31.314Z,15.40
2023-02-11T05:23:58.254Z,14.89
2023-02-11T05:26:25.646Z,15.20
2023-02-11T05:28:52.277Z,15.21
2023-02-11T05:31:18.935Z,15.58
2023-02-11T05:33:45.764Z,14.98
2023-02-11T05:36:13.686Z,15.38
2023-02-11T05:38:42.408Z,15.44
2023-02-11T05:41:09.661Z,15.73
2023-02-11T05:43:36.639Z,15.43
2023-02-11T05:46:04.405Z,15.13
2023-02-11T05:48:31.540Z,15.55
2023-02-11T05:50:58.655Z,16.77
2023-02-11T05:53:25.322Z,16.28
2023-02-11T05:55:52.216Z,15.78
2023-02-11T05:58:19.058Z,15.61
2023-02-11T06:00:45.644Z,16.25
2023-02-11T06:03:12.430Z,15.77
2023-02-11T06:05:39.079Z,16.02
2023-02-11T06:08:05.695Z,16.27
2023-02-11T06:10:32.209Z,16.82
2023-02-11T06:12:58.807Z,17.28
2023-02-11T06:15:25.349Z,16.62
2023-02-11T06:17:52.342Z,16.83
2023-02-11T06:20:19.405Z,17.97
2023-02-11T06:22:46.682Z,18.13
2023-02-11T06:25:13.534Z,17.73
2023-02-11T06:27:40.114Z,17.85
2023-02-11T06:30:09.968Z,18.20
2023-02-11T06:32:44.680Z,18.18
2023-02-11T06:35:12.647Z,18.28
2023-02-11T06:37:40.488Z,18.20
2023-02-11T06:40:07.860Z,18.76
2023-02-11T06:42:36.157Z,18.29
2023-02-11T06:45:05.937Z,18.43
2023-02-11T06:47:32.572Z,18.37
2023-02-11T06:49:59.145Z,19.54
2023-02-11T06:52:25.750Z,18.93
2023-02-11T06:54:52.290Z,18.88
2023-02-11T06:57:18.886Z,19.17
2023-02-11T06:59:45.523Z,19.64
2023-02-11T07:02:12.317Z,19.35
2023-02-11T07:04:41.958Z,19.22
2023-02-11T07:07:08.505Z,19.75
2023-02-11T07:09:35.116Z,19.89
2023-02-11T07:12:01.683Z,19.79
2023-02-11T07:14:28.259Z,20.15
2023-02-11T07:16:54.888Z,20.91
2023-02-11T07:19:21.502Z,19.80
2023-02-11T07:21:48.814Z,20.61
2023-02-11T07:24:15.669Z,20.77
2023-02-11T07:26:42.462Z,20.73
2023-02-11T07:29:09.158Z,20.59
2023-02-11T07:31:35.874Z,20.86
2023-02-11T07:34:02.700Z,21.49
2023-02-11T07:36:31.813Z,21.15
2023-02-11T07:38:58.827Z,21.78
2023-02-11T07:41:26.343Z,21.25
2023-02-11T07:43:53.747Z,21.51
2023-02-11T07:46:23.753Z,21.24
2023-02-11T07:48:51.592Z,21.80
2023-02-11T07:51:22.162Z,21.28
2023-02-11T07:53:48.968Z,22.09
2023-02-11T07:56:17.770Z,22.07
2023-02-11T07:58:44.730Z,21.71
2023-02-11T08:01:15.146Z,21.39
2023-02-11T08:03:42.754Z,22.97
2023-02-11T08:06:15.306Z,22.85
2023-02-11T08:08:42.772Z,21.98
2023-02-11T08:11:12.695Z,21.93
2023-02-11T08:13:39.606Z,21.85
2023-02-11T08:16:07.647Z,21.09
2023-02-11T08:18:35.265Z,21.47
2023-02-11T08:21:09.872Z,22.06
2023-02-11T08:23:38.198Z,21.72
2023-02-11T08:26:08.191Z,21.70
2023-02-11T08:28:40.160Z,21.98
2023-02-11T08:31:08.627Z,22.74
2023-02-11T08:33:35.321Z,22.86
2023-02-11T08:36:08.886Z,21.92
2023-02-11T08:38:35.543Z,22.50
2023-02-11T08:41:02.093Z,22.42
2023-02-11T08:43:28.962Z,22.39
2023-02-11T08:45:55.597Z,22.39
2023-02-11T08:48:22.216Z,22.73
2023-02-11T08:50:48.788Z,23.34
2023-02-11T08:53:15.327Z,22.58
2023-02-11T08:55:48.979Z,22.49
2023-02-11T08:58:18.101Z,22.54
2023-02-11T09:00:46.270Z,22.67
2023-02-11T09:03:15.312Z,23.05
2023-02-11T09:05:47.100Z,22.40
2023-02-11T09:08:14.629Z,21.68
2023-02-11T09:10:41.186Z,21.94
2023-02-11T09:13:08.566Z,21.58
2023-02-11T09:15:35.622Z,22.53
2023-02-11T09:18:03.477Z,21.81
2023-02-11T09:20:30.555Z,21.20
2023-02-11T09:22:59.222Z,21.81
2023-02-11T09:25:26.279Z,21.11
2023-02-11T09:27:53.780Z,22.02
2023-02-11T09:30:21.396Z,21.17
2023-02-11T09:32:48.024Z,20.88
2023-02-11T09:35:14.611Z,21.83
2023-02-11T09:37:41.117Z,20.75
2023-02-11T09:40:08.391Z,20.42
2023-02-11T09:42:50.840Z,20.28
2023-02-11T09:45:22.203Z,20.07
2023-02-11T09:48:05.126Z,20.12
2023-02-11T09:50:38.202Z,19.93
2023-02-11T09:53:17.926Z,18.55
2023-02-11T09:55:48.337Z,19.76
2023-02-11T09:58:21.708Z,19.25
2023-02-11T10:01:23.681Z,19.10
2023-02-11T10:04:05.270Z,19.10
2023-02-11T10:06:43.650Z,18.67
2023-02-11T10:09:37.832Z,18.99
2023-02-11T10:12:45.657Z,18.53
2023-02-11T10:15:32.019Z,18.88
2023-02-11T10:18:32.248Z,18.34
2023-02-11T10:21:37.989Z,17.84
2023-02-11T10:24:12.202Z,18.11
2023-02-11T10:26:40.862Z,17.64
2023-02-11T10:29:19.024Z,17.77
2023-02-11T10:31:47.769Z,18.28
2023-02-11T10:34:15.259Z,18.37
2023-02-11T10:36:44.406Z,17.03
2023-02-11T10:39:24.165Z,17.04
2023-02-11T10:41:57.053Z,17.76
2023-02-11T10:44:33.965Z,16.85
2023-02-11T10:47:09.264Z,15.98
2023-02-11T10:49:42.052Z,15.95
2023-02-11T10:52:17.818Z,16.11
2023-02-11T10:55:05.596Z,15.53
2023-02-11T10:57:49.776Z,15.33
2023-02-11T11:00:39.094Z,15.29
2023-02-11T11:03:20.250Z,15.21
2023-02-11T11:05:59.827Z,14.91
2023-02-11T11:08:48.209Z,14.79
2023-02-11T11:11:24.259Z,15.36
2023-02-11T11:13:53.536Z,14.88
2023-02-11T11:16:24.564Z,14.68
2023-02-11T11:19:13.597Z,13.96
2023-02-11T11:21:47.753Z,14.27
2023-02-11T11:24:19.669Z,13.77
2023-02-11T11:26:54.069Z,14.77
2023-02-11T11:29:57.976Z,14.17
2023-02-11T11:32:29.958Z,14.21
2023-02-11T11:35:02.609Z,13.90
2023-02-11T11:37:38.785Z,13.55
2023-02-11T11:40:10.228Z,13.35
2023-02-11T11:42:39.136Z,13.42
2023-02-11T11:45:22.889Z,13.49
2023-02-11T11:47:52.295Z,13.75
2023-02-11T11:50:35.017Z,13.32
2023-02-11T11:53:24.152Z,13.06
2023-02-11T11:55:59.921Z,13.15
2023-02-11T11:58:30.111Z,12.21
2023-02-11T12:01:30.507Z,12.46
2023-02-11T12:04:21.222Z,11.97
2023-02-11T12:06:57.213Z,11.38
2023-02-11T12:09:33.383Z,11.45
2023-02-11T12:12:26.607Z,10.91
2023-02-11T12:14:53.113Z,11.10
2023-02-11T12:17:37.102Z,11.07
2023-02-11T12:20:27.332Z,10.67
2023-02-11T12:23:04.227Z,10.50
2023-02-11T12:25:55.052Z,10.52
2023-02-11T12:28:40.231Z,10.25
2023-02-11T12:31:44.196Z,9.92
2023-02-11T12:34:38.256Z,9.99
2023-02-11T12:37:26.176Z,9.52
2023-02-11T12:40:11.044Z,9.26
2023-02-11T12:43:01.502Z,9.26
2023-02-11T12:45:42.782Z,9.33
2023-02-11T12:48:25.965Z,8.95
2023-02-11T12:51:09.885Z,9.07
2023-02-11T12:53:49.310Z,9.44
2023-02-11T12:56:26.897Z,9.30
2023-02-11T12:58:58.827Z,9.18
2023-02-11T13:01:33.737Z,8.99
2023-02-11T13:04:09.128Z,9.18
2023-02-11T13:06:42.164Z,9.52
2023-02-11T13:09:19.004Z,9.70
2023-02-11T13:11:51.849Z,9.52
2023-02-11T13:14:35.307Z,9.05
2023-02-11T13:17:13.081Z,8.77
2023-02-11T13:19:50.409Z,9.02
2023-02-11T13:22:24.203Z,9.14
2023-02-11T13:25:07.090Z,9.36
2023-02-11T13:27:46.182Z,9.25
2023-02-11T13:30:27.320Z,9.08
2023-02-11T13:32:53.878Z,9.00
2023-02-11T13:35:37.402Z,9.23
2023-02-11T13:38:25.518Z,8.65
2023-02-11T13:41:02.640Z,8.93
2023-02-11T13:43:33.053Z,9.07
2023-02-11T13:46:11.698Z,8.90
2023-02-11T13:48:47.692Z,8.93
2023-02-11T13:51:18.400Z,9.22
2023-02-11T13:53:50.427Z,8.92
2023-02-11T13:56:30.726Z,9.07
2023-02-11T13:59:01.970Z,9.48
2023-02-11T14:02:07.139Z,9.58
2023-02-11T14:04:52.524Z,9.05
2023-02-11T14:08:11.882Z,9.09
2023-02-11T14:10:40.942Z,8.76
2023-02-11T14:13:29.718Z,9.07
2023-02-11T14:16:31.665Z,9.04
2023-02-11T14:19:02.474Z,8.55
2023-02-11T14:21:29.669Z,8.68
2023-02-11T14:24:02.101Z,9.12
2023-02-11T14:26:43.880Z,8.98
2023-02-11T14:29:33.403Z,9.05
2023-02-11T14:32:27.017Z,8.80
2023-02-11T14:35:15.532Z,9.16
2023-02-11T14:38:07.488Z,8.95
2023-02-11T14:40:55.106Z,9.49
2023-02-11T14:43:31.854Z,8.73
2023-02-11T14:46:01.308Z,8.89
2023-02-11T14:48:32.192Z,9.08
2023-02-11T14:51:06.328Z,8.49
2023-02-11T14:53:35.068Z,8.43
2023-02-11T14:56:01.666Z,8.51
2023-02-11T14:58:32.895Z,8.95
2023-02-11T15:01:06.428Z,8.43
2023-02-11T15:03:37.752Z,8.39
2023-02-11T15:06:07.394Z,8.39
2023-02-11T15:08:38.289Z,7.90
2023-02-11T15:11:12.687Z,8.00
2023-02-11T15:13:39.521Z,8.45
2023-02-11T15:16:11.002Z,8.03
2023-02-11T15:18:43.701Z,8.10
2023-02-11T15:21:10.960Z,8.30
2023-02-11T15:23:39.006Z,8.22
2023-02-11T15:26:13.954Z,8.22
2023-02-11T15:28:52.127Z,8.04
2023-02-11T15:31:23.298Z,7.83
2023-02-11T15:33:51.554Z,7.72
2023-02-11T15:36:23.694Z,7.81
2023-02-11T15:39:16.111Z,7.52
2023-02-11T15:41:44.378Z,7.49
2023-02-11T15:44:32.055Z,7.93
2023-02-11T15:47:00.099Z,8.45
2023-02-11T15:49:27.331Z,8.10
2023-02-11T15:51:57.098Z,7.93
2023-02-11T15:54:29.395Z,8.07
2023-02-11T15:57:04.242Z,7.60
2023-02-11T15:59:41.090Z,7.78
2023-02-11T16:02:30.380Z,8.11
2023-02-11T16:05:26.110Z,8.31
2023-02-11T16:07:52.996Z,8.11
2023-02-11T16:10:29.847Z,8.18
2023-02-11T16:13:08.451Z,8.04
2023-02-11T16:15:35.003Z,7.62
2023-02-11T16:18:13.376Z,7.86
2023-02-11T16:20:40.340Z,8.13
2023-02-11T16:23:08.028Z,7.67
2023-02-11T16:25:35.721Z,7.88
2023-02-11T16:28:02.567Z,8.12
2023-02-11T16:30:32.750Z,7.57
2023-02-11T16:32:59.250Z,8.09
2023-02-11T16:35:26.026Z,7.88
2023-02-11T16:37:52.662Z,7.95
2023-02-11T16:40:19.258Z,7.51
2023-02-11T16:42:45.803Z,7.80
2023-02-11T16:45:12.442Z,7.88
2023-02-11T16:47:42.988Z,7.86
2023-02-11T16:50:19.011Z,7.79
2023-02-11T16:52:46.297Z,7.40
2023-02-11T16:55:13.180Z,7.48
2023-02-11T16:57:40.199Z,7.27
2023-02-11T17:00:08.070Z,7.61
2023-02-11T17:02:37.132Z,7.12
2023-02-11T17:05:07.437Z,7.26
2023-02-11T17:07:34.384Z,7.06
2023-02-11T17:10:01.256Z,7.36
2023-02-11T17:12:28.011Z,7.53
2023-02-11T17:14:54.838Z,7.54
2023-02-11T17:17:23.667Z,7.34
2023-02-11T17:19:51.058Z,7.59
2023-02-11T17:22:18.661Z,7.73
2023-02-11T17:24:45.281Z,8.24
2023-02-11T17:27:12.170Z,8.19
2023-02-11T17:29:38.681Z,8.45
2023-02-11T17:32:05.399Z,8.24
2023-02-11T17:34:32.444Z,8.36
2023-02-11T17:37:00.242Z,8.32
2023-02-11T17:39:27.519Z,8.69
2023-02-11T17:41:54.055Z,8.52
2023-02-11T17:44:20.625Z,8.99
2023-02-11T17:46:47.235Z,9.01
2023-02-11T17:49:13.825Z,9.11
2023-02-11T17:51:40.691Z,9.10
2023-02-11T17:54:14.255Z,17.88
2023-02-11T17:56:42.205Z,12.54
2023-02-11T17:59:10.709Z,22.79
2023-02-11T18:01:39.124Z,22.93
2023-02-11T18:04:06.878Z,14.82
2023-02-11T18:06:34.277Z,11.95
2023-02-11T18:09:02.419Z,10.39
2023-02-11T18:11:30.963Z,12.69
2023-02-11T18:14:02.149Z,11.86
2023-02-11T18:16:30.109Z,11.10
2023-02-11T18:18:58.310Z,10.41
2023-02-11T18:21:25.858Z,11.20
2023-02-11T18:23:52.492Z,11.26
2023-02-11T18:26:21.585Z,10.25
2023-02-11T18:28:48.350Z,10.04
2023-02-11T18:31:14.984Z,10.71
2023-02-11T18:33:42.561Z,10.36
2023-02-11T18:36:13.039Z,10.70
2023-02-11T18:38:40.897Z,10.33
2023-02-11T18:41:07.737Z,10.70
2023-02-11T18:43:35.378Z,10.98
2023-02-11T18:46:06.885Z,10.87
2023-02-11T18:48:33.540Z,11.87
2023-02-11T18:51:00.120Z,12.05
2023-02-11T18:53:26.736Z,11.39
2023-02-11T18:55:53.888Z,11.32
2023-02-11T18:58:21.327Z,10.70
2023-02-11T19:00:51.975Z,10.78
2023-02-11T19:03:18.589Z,13.40
2023-02-11T19:05:48.140Z,11.94
2023-02-11T19:08:15.229Z,11.61
2023-02-11T19:10:44.404Z,10.77
2023-02-11T19:13:10.985Z,22.17
2023-02-11T19:15:45.310Z,21.68
2023-02-11T19:18:13.178Z,15.39
2023-02-11T19:20:42.049Z,12.77
2023-02-11T19:23:08.651Z,11.64
2023-02-11T19:25:35.420Z,11.52
2023-02-11T19:28:03.256Z,11.50
2023-02-11T19:30:30.026Z,11.41
2023-02-11T19:32:57.618Z,11.10
2023-02-11T19:35:25.342Z,10.98
2023-02-11T19:37:51.981Z,11.25
2023-02-11T19:40:21.110Z,11.11
2023-02-11T19:42:47.906Z,11.43
2023-02-11T19:45:14.488Z,10.83
2023-02-11T19:47:41.058Z,10.60
2023-02-11T19:50:08.612Z,10.91
2023-02-11T19:52:38.213Z,11.07
2023-02-11T19:55:05.064Z,10.90
2023-02-11T19:57:31.638Z,10.75
2023-02-11T19:59:58.252Z,13.23
2023-02-11T20:02:24.844Z,12.53
2023-02-11T20:04:51.510Z,11.24
2023-02-11T20:07:18.098Z,10.96
2023-02-11T20:09:44.672Z,11.21
2023-02-11T20:12:12.071Z,11.19
2023-02-11T20:14:38.783Z,11.62
2023-02-11T20:17:05.418Z,11.09
2023-02-11T20:19:32.068Z,11.23
2023-02-11T20:21:58.642Z,11.34
2023-02-11T20:24:25.730Z,11.68
2023-02-11T20:26:55.627Z,11.10
2023-02-11T20:29:23.373Z,11.53
2023-02-11T20:31:50.608Z,11.78
2023-02-11T20:34:18.129Z,10.92
2023-02-11T20:36:51.603Z,10.96
2023-02-11T20:39:19.217Z,11.33
2023-02-11T20:41:46.376Z,11.57
2023-02-11T20:44:13.511Z,11.34
2023-02-11T20:46:43.720Z,11.46
2023-02-11T20:49:12.865Z,11.38
2023-02-11T20:51:39.911Z,11.37
2023-02-11T20:54:07.422Z,11.02
2023-02-11T20:56:36.808Z,10.81
2023-02-11T20:59:04.322Z,11.65
2023-02-11T21:01:37.020Z,12.20
2023-02-11T21:04:19.433Z,11.44
2023-02-11T21:06:49.251Z,11.53
2023-02-11T21:09:25.022Z,11.32
2023-02-11T21:11:53.698Z,11.19
2023-02-11T21:14:22.498Z,11.71
2023-02-11T21:16:49.617Z,11.95
2023-02-11T21:19:16.770Z,12.10
2023-02-11T21:21:43.705Z,12.80
2023-02-11T21:24:11.305Z,12.70
2023-02-11T21:26:39.119Z,12.52
2023-02-11T21:29:07.504Z,12.30
2023-02-11T21:31:35.202Z,12.48
2023-02-11T21:34:01.997Z,11.99
2023-02-11T21:36:29.977Z,11.96
2023-02-11T21:38:56.833Z,11.61
2023-02-11T21:41:24.814Z,11.36
2023-02-11T21:43:52.299Z,11.08
2023-02-11T21:46:20.483Z,11.49
2023-02-11T21:48:47.783Z,11.23
2023-02-11T21:51:20.838Z,10.80
2023-02-11T21:53:47.853Z,10.90
2023-02-11T21:56:17.309Z,11.69
2023-02-11T21:58:45.624Z,11.46
2023-02-11T22:01:21.576Z,11.76
2023-02-11T22:03:48.220Z,11.88
2023-02-11T22:06:18.795Z,11.77
2023-02-11T22:08:45.375Z,11.80
2023-02-11T22:11:13.566Z,11.93
2023-02-11T22:13:41.100Z,12.22
2023-02-11T22:16:11.084Z,11.93
2023-02-11T22:18:38.221Z,11.84
2023-02-11T22:21:08.630Z,12.08
2023-02-11T22:23:36.089Z,12.03
2023-02-11T22:26:28.610Z,12.85
2023-02-11T22:28:55.990Z,12.54
2023-02-11T22:31:28.804Z,13.65
2023-02-11T22:33:56.516Z,13.75
2023-02-11T22:36:26.262Z,14.51
2023-02-11T22:38:53.553Z,15.09
2023-02-11T22:41:21.378Z,16.43
2023-02-11T22:43:48.347Z,16.40
2023-02-11T22:46:18.187Z,16.41
2023-02-11T22:48:45.812Z,16.98
2023-02-11T22:51:19.642Z,16.92
2023-02-11T22:54:01.353Z,17.82
2023-02-11T22:56:30.195Z,17.07
2023-02-11T22:59:01.378Z,17.45
2023-02-11T23:01:29.450Z,17.68
2023-02-11T23:03:56.112Z,17.10
2023-02-11T23:06:22.740Z,16.90
2023-02-11T23:08:49.316Z,17.01
2023-02-11T23:11:19.573Z,16.80
2023-02-11T23:13:48.122Z,16.73
2023-02-11T23:16:19.144Z,17.11
2023-02-11T23:18:47.386Z,16.39
2023-02-11T23:21:24.838Z,16.23
2023-02-11T23:24:01.773Z,16.22
2023-02-11T23:26:28.597Z,16.85
2023-02-11T23:28:57.222Z,17.38
2023-02-11T23:31:26.792Z,17.40
2023-02-11T23:33:53.885Z,16.98
2023-02-11T23:36:22.182Z,16.81
2023-02-11T23:38:48.906Z,16.83
2023-02-11T23:41:16.574Z,16.21
2023-02-11T23:43:43.116Z,16.95
2023-02-11T23:46:10.245Z,16.69
2023-02-11T23:48:37.681Z,17.11
2023-02-11T23:51:04.640Z,16.22
2023-02-11T23:53:31.209Z,16.86
2023-02-11T23:55:57.811Z,16.65
2023-02-11T23:58:24.554Z,17.67
